Time;durP1;ratioP1;P1;durP2;ratioP2;P2;SDS_P1;SDS_P2;PMS_P1;PMS_P2;Temp;Humidity;BMP_temperature;BMP_pressure;BME280_temperature;BME280_humidity;BME280_pressure;Samples;Min_cycle;Max_cycle;Signal;HPM_P1;HPM_P2
2023/12/13 00:01:24;;;;;;;6.68;3.70;;;;;;;;;;5075695;28;20383;-28
2023/12/13 00:03:50;;;;;;;8.07;3.53;;;;;;;;;;5076397;28;20020;-27
2023/12/13 00:06:15;;;;;;;10.13;4.32;;;;;;;;;;5075989;28;20282;-27
2023/12/13 00:08:40;;;;;;;9.13;4.25;;;;;;;;;;5075731;28;20036;-28
2023/12/13 00:11:05;;;;;;;11.10;4.70;;;;;;;;;;5076070;28;20096;-27
2023/12/13 00:13:30;;;;;;;8.93;4.60;;;;;;;;;;5075574;28;20258;-27
2023/12/13 00:15:56;;;;;;;9.77;5.10;;;;;;;;;;5076170;28;20024;-27
2023/12/13 00:18:21;;;;;;;11.30;5.55;;;;;;;;;;5075840;28;20274;-27
2023/12/13 00:20:46;;;;;;;11.10;5.47;;;;;;;;;;5075532;28;20016;-27
2023/12/13 00:23:11;;;;;;;14.37;6.27;;;;;;;;;;5076078;28;20337;-27
2023/12/13 00:25:36;;;;;;;15.80;6.60;;;;;;;;;;5075738;28;20264;-27
2023/12/13 00:28:02;;;;;;;11.60;6.30;;;;;;;;;;5075994;28;20017;-27
2023/12/13 00:30:27;;;;;;;13.57;6.63;;;;;;;;;;5075507;28;20720;-28
2023/12/13 00:32:52;;;;;;;16.07;6.70;;;;;;;;;;5075631;28;20061;-27
2023/12/13 00:35:18;;;;;;;15.10;7.47;;;;;;;;;;5075529;28;20251;-27
2023/12/13 00:37:43;;;;;;;14.73;7.10;;;;;;;;;;5075187;28;20286;-27
2023/12/13 00:40:10;;;;;;;14.48;7.15;;;;;;;;;;5075696;28;20017;-27
2023/12/13 00:42:35;;;;;;;13.65;7.50;;;;;;;;;;5075373;28;20059;-27
2023/12/13 00:45:00;;;;;;;14.23;6.90;;;;;;;;;;5075617;28;20049;-27
2023/12/13 00:47:26;;;;;;;13.53;7.23;;;;;;;;;;5075269;28;20614;-27
2023/12/13 00:49:51;;;;;;;12.60;7.03;;;;;;;;;;5074832;28;20300;-27
2023/12/13 00:52:16;;;;;;;13.50;6.90;;;;;;;;;;5074912;28;20009;-27
2023/12/13 00:54:41;;;;;;;14.63;6.97;;;;;;;;;;5075357;28;20020;-27
2023/12/13 00:57:07;;;;;;;13.95;6.93;;;;;;;;;;5075342;28;20020;-27
2023/12/13 00:59:32;;;;;;;10.95;6.45;;;;;;;;;;5075840;28;20017;-27
2023/12/13 01:01:57;;;;;;;14.80;6.35;;;;;;;;;;5074929;28;20048;-27
2023/12/13 01:04:22;;;;;;;10.63;6.13;;;;;;;;;;5075184;28;20384;-27
2023/12/13 01:06:47;;;;;;;9.33;6.27;;;;;;;;;;5075139;28;20304;-27
2023/12/13 01:09:13;;;;;;;10.05;5.70;;;;;;;;;;5074320;28;20258;-27
2023/12/13 01:11:38;;;;;;;11.93;6.20;;;;;;;;;;5074292;28;20028;-27
2023/12/13 01:14:04;;;;;;;10.43;5.73;;;;;;;;;;5074749;28;20609;-27
2023/12/13 01:16:29;;;;;;;9.40;6.03;;;;;;;;;;5074362;28;20254;-27
2023/12/13 01:18:54;;;;;;;14.43;6.25;;;;;;;;;;5074666;28;20033;-27
2023/12/13 01:21:19;;;;;;;18.17;6.80;;;;;;;;;;5074330;28;20052;-29
2023/12/13 01:23:45;;;;;;;11.73;6.40;;;;;;;;;;5074894;28;20304;-27
2023/12/13 01:26:10;;;;;;;12.57;6.60;;;;;;;;;;5074208;28;20251;-27
2023/12/13 01:28:35;;;;;;;13.80;7.33;;;;;;;;;;5074515;28;20255;-27
2023/12/13 01:31:04;;;;;;;11.65;6.75;;;;;;;;;;5074301;28;20362;-27
2023/12/13 01:33:29;;;;;;;14.40;7.22;;;;;;;;;;5074109;28;20468;-27
2023/12/13 01:35:54;;;;;;;10.53;6.33;;;;;;;;;;5074618;28;20056;-27
2023/12/13 01:38:20;;;;;;;12.77;6.87;;;;;;;;;;5074560;28;20247;-27
2023/12/13 01:40:50;;;;;;;17.47;7.10;;;;;;;;;;5073964;28;20281;-27
2023/12/13 01:43:23;;;;;;;14.43;7.15;;;;;;;;;;5074449;28;20435;-27
2023/12/13 01:45:48;;;;;;;13.43;7.45;;;;;;;;;;5074169;28;20027;-28
2023/12/13 01:48:13;;;;;;;15.73;6.97;;;;;;;;;;5073878;28;20013;-27
2023/12/13 01:50:38;;;;;;;11.10;6.97;;;;;;;;;;5073734;28;20147;-28
2023/12/13 01:53:04;;;;;;;20.30;7.97;;;;;;;;;;5072489;28;20255;-27
2023/12/13 01:55:29;;;;;;;17.17;7.40;;;;;;;;;;5074008;28;20017;-27
2023/12/13 01:57:54;;;;;;;14.73;7.67;;;;;;;;;;5073820;28;20024;-27
2023/12/13 02:00:20;;;;;;;13.52;7.38;;;;;;;;;;5073518;28;20266;-27
2023/12/13 02:02:46;;;;;;;16.77;7.90;;;;;;;;;;5073513;28;20048;-27
2023/12/13 02:05:12;;;;;;;13.77;7.53;;;;;;;;;;5073582;28;20078;-27
2023/12/13 02:07:37;;;;;;;18.08;7.70;;;;;;;;;;5073461;28;20024;-27
2023/12/13 02:10:03;;;;;;;15.15;7.70;;;;;;;;;;5073618;28;20025;-27
2023/12/13 02:12:28;;;;;;;14.48;7.55;;;;;;;;;;5073756;28;20030;-27
2023/12/13 02:14:53;;;;;;;10.27;6.90;;;;;;;;;;5074291;28;20455;-28
2023/12/13 02:17:19;;;;;;;15.93;8.10;;;;;;;;;;5073787;28;20254;-27
2023/12/13 02:19:44;;;;;;;12.47;7.07;;;;;;;;;;5073521;28;20016;-27
2023/12/13 02:22:09;;;;;;;13.10;6.77;;;;;;;;;;5073305;28;20243;-28
2023/12/13 02:24:36;;;;;;;16.02;7.00;;;;;;;;;;5073693;28;20251;-27
2023/12/13 02:27:02;;;;;;;12.85;7.07;;;;;;;;;;5073377;28;20024;-27
2023/12/13 02:29:27;;;;;;;13.73;6.55;;;;;;;;;;5073453;28;20020;-27
2023/12/13 02:31:52;;;;;;;12.02;6.50;;;;;;;;;;5073314;28;20464;-27
2023/12/13 02:34:17;;;;;;;15.10;6.83;;;;;;;;;;5073947;28;20028;-27
2023/12/13 02:36:45;;;;;;;11.17;6.20;;;;;;;;;;5073345;28;20744;-27
2023/12/13 02:39:11;;;;;;;13.50;6.80;;;;;;;;;;5073330;28;20308;-27
2023/12/13 02:41:36;;;;;;;11.82;6.75;;;;;;;;;;5073600;28;20028;-27
2023/12/13 02:44:01;;;;;;;15.73;7.10;;;;;;;;;;5073341;28;20025;-29
2023/12/13 02:46:28;;;;;;;11.63;7.00;;;;;;;;;;5073797;28;20246;-27
2023/12/13 02:48:53;;;;;;;16.08;6.93;;;;;;;;;;5073511;28;20263;-27
2023/12/13 02:51:18;;;;;;;11.60;7.00;;;;;;;;;;5073131;28;20021;-27
2023/12/13 02:53:44;;;;;;;12.97;6.67;;;;;;;;;;5073116;28;20281;-27
2023/12/13 02:56:09;;;;;;;14.82;7.35;;;;;;;;;;5073395;28;20286;-27
2023/12/13 02:58:34;;;;;;;14.03;7.73;;;;;;;;;;5073161;28;20383;-28
2023/12/13 03:01:00;;;;;;;17.63;7.43;;;;;;;;;;5073622;28;20251;-27
2023/12/13 03:03:25;;;;;;;15.93;7.60;;;;;;;;;;5072949;28;20836;-27
2023/12/13 03:05:50;;;;;;;15.50;7.47;;;;;;;;;;5073324;28;20017;-28
2023/12/13 03:08:16;;;;;;;16.33;7.53;;;;;;;;;;5073533;28;20107;-27
2023/12/13 03:10:42;;;;;;;12.65;7.63;;;;;;;;;;5072906;28;20361;-27
2023/12/13 03:13:07;;;;;;;12.50;7.68;;;;;;;;;;5073140;28;20045;-27
2023/12/13 03:15:32;;;;;;;16.23;7.90;;;;;;;;;;5073284;28;20005;-27
2023/12/13 03:17:57;;;;;;;13.40;7.50;;;;;;;;;;5073485;28;20243;-27
2023/12/13 03:20:22;;;;;;;12.57;7.33;;;;;;;;;;5072950;28;20626;-27
2023/12/13 03:22:47;;;;;;;15.50;7.85;;;;;;;;;;5073090;28;20290;-28
2023/12/13 03:25:13;;;;;;;17.90;8.17;;;;;;;;;;5072857;28;20070;-27
2023/12/13 03:27:42;;;;;;;13.33;7.37;;;;;;;;;;5073398;28;20656;-27
2023/12/13 03:30:08;;;;;;;15.43;7.72;;;;;;;;;;5073310;28;20279;-27
2023/12/13 03:32:34;;;;;;;15.10;7.68;;;;;;;;;;5073493;28;20062;-27
2023/12/13 03:34:59;;;;;;;14.77;7.83;;;;;;;;;;5076334;28;20376;-27
2023/12/13 03:37:24;;;;;;;12.03;6.97;;;;;;;;;;5076825;28;20243;-27
2023/12/13 03:39:49;;;;;;;16.05;8.40;;;;;;;;;;5076427;28;20319;-27
2023/12/13 03:42:14;;;;;;;13.73;7.65;;;;;;;;;;5076510;28;20088;-28
2023/12/13 03:44:39;;;;;;;16.10;8.17;;;;;;;;;;5076428;28;20107;-27
2023/12/13 03:47:05;;;;;;;17.13;8.47;;;;;;;;;;5076090;28;20602;-27
2023/12/13 03:49:30;;;;;;;21.30;8.30;;;;;;;;;;5076629;28;20250;-27
2023/12/13 03:51:55;;;;;;;18.97;8.80;;;;;;;;;;5076039;28;20285;-27
2023/12/13 03:54:20;;;;;;;15.43;8.17;;;;;;;;;;5076578;28;20250;-27
2023/12/13 03:56:45;;;;;;;16.40;8.33;;;;;;;;;;5076578;28;20342;-27
2023/12/13 03:59:10;;;;;;;17.53;8.73;;;;;;;;;;5075970;28;20652;-27
2023/12/13 04:01:36;;;;;;;13.93;8.05;;;;;;;;;;5076044;28;20332;-28
2023/12/13 04:04:01;;;;;;;15.63;7.97;;;;;;;;;;5076175;28;20475;-28
2023/12/13 04:06:26;;;;;;;15.13;8.40;;;;;;;;;;5075886;28;20438;-27
2023/12/13 04:08:51;;;;;;;13.90;8.52;;;;;;;;;;5076148;28;20027;-27
2023/12/13 04:11:17;;;;;;;17.23;8.80;;;;;;;;;;5074395;28;20044;-27
2023/12/13 04:13:42;;;;;;;16.02;9.10;;;;;;;;;;5074457;28;20009;-27
2023/12/13 04:16:07;;;;;;;16.95;8.93;;;;;;;;;;5075977;28;20028;-27
2023/12/13 04:18:32;;;;;;;16.08;9.23;;;;;;;;;;5075631;28;20024;-28
2023/12/13 04:20:58;;;;;;;16.83;8.93;;;;;;;;;;5076145;28;20023;-27
2023/12/13 04:23:24;;;;;;;16.63;9.13;;;;;;;;;;5075897;28;20375;-27
2023/12/13 04:25:49;;;;;;;17.52;10.02;;;;;;;;;;5075756;28;20737;-27
2023/12/13 04:28:14;;;;;;;21.53;10.23;;;;;;;;;;5075427;28;20017;-27
2023/12/13 04:30:39;;;;;;;19.45;10.15;;;;;;;;;;5075312;28;20429;-27
2023/12/13 04:33:05;;;;;;;20.90;9.50;;;;;;;;;;5075942;28;20016;-27
2023/12/13 04:35:32;;;;;;;21.87;9.93;;;;;;;;;;5075620;28;20594;-27
2023/12/13 04:37:57;;;;;;;23.95;9.77;;;;;;;;;;5075506;28;20258;-28
2023/12/13 04:40:22;;;;;;;19.47;9.73;;;;;;;;;;5075830;28;20016;-27
2023/12/13 04:42:47;;;;;;;18.92;10.35;;;;;;;;;;5075380;28;20741;-27
2023/12/13 04:45:13;;;;;;;20.63;10.63;;;;;;;;;;5074395;28;20021;-27
2023/12/13 04:47:38;;;;;;;17.85;10.40;;;;;;;;;;5075314;28;20311;-27
2023/12/13 04:50:04;;;;;;;19.98;10.90;;;;;;;;;;5075227;28;20130;-27
2023/12/13 04:52:29;;;;;;;18.73;11.00;;;;;;;;;;5074913;28;20021;-28
2023/12/13 04:54:54;;;;;;;18.63;10.43;;;;;;;;;;5075510;28;20036;-27
2023/12/13 04:57:19;;;;;;;20.90;11.00;;;;;;;;;;5075369;28;20400;-27
2023/12/13 04:59:44;;;;;;;24.30;10.23;;;;;;;;;;5074860;28;20243;-27
2023/12/13 05:02:09;;;;;;;18.20;10.27;;;;;;;;;;5074807;28;20040;-28
2023/12/13 05:04:35;;;;;;;23.73;11.40;;;;;;;;;;5074754;28;20258;-27
2023/12/13 05:07:00;;;;;;;23.67;10.63;;;;;;;;;;5074662;28;20308;-27
2023/12/13 05:09:25;;;;;;;20.30;10.80;;;;;;;;;;5074630;28;20286;-27
2023/12/13 05:11:50;;;;;;;23.50;9.75;;;;;;;;;;5074387;28;20290;-27
2023/12/13 05:14:15;;;;;;;30.67;10.67;;;;;;;;;;5074827;28;20051;-27
2023/12/13 05:16:40;;;;;;;21.03;9.83;;;;;;;;;;5074758;28;20243;-28
2023/12/13 05:19:06;;;;;;;20.02;10.00;;;;;;;;;;5074695;28;20258;-27
2023/12/13 05:21:31;;;;;;;19.65;10.00;;;;;;;;;;5074618;28;20376;-27
2023/12/13 05:23:56;;;;;;;17.93;10.30;;;;;;;;;;5074294;28;20063;-27
2023/12/13 05:26:21;;;;;;;21.83;10.63;;;;;;;;;;5074834;28;20253;-27
2023/12/13 05:28:46;;;;;;;21.73;11.20;;;;;;;;;;5074818;28;20250;-28
2023/12/13 05:31:18;;;;;;;20.97;10.73;;;;;;;;;;5074664;28;20343;-32
2023/12/13 05:33:44;;;;;;;20.60;10.37;;;;;;;;;;5074434;28;20338;-30
2023/12/13 05:36:09;;;;;;;21.60;10.90;;;;;;;;;;5074312;28;20109;-28
2023/12/13 05:38:34;;;;;;;23.08;11.10;;;;;;;;;;5074585;28;20012;-27
2023/12/13 05:40:59;;;;;;;23.25;11.27;;;;;;;;;;5074028;28;20021;-27
2023/12/13 05:43:24;;;;;;;21.00;10.50;;;;;;;;;;5074285;28;20039;-27
2023/12/13 05:45:50;;;;;;;18.43;10.57;;;;;;;;;;5074033;28;20258;-27
2023/12/13 05:48:15;;;;;;;23.20;10.57;;;;;;;;;;5074115;28;20756;-27
2023/12/13 05:50:40;;;;;;;20.13;10.57;;;;;;;;;;5073990;28;20074;-27
2023/12/13 05:53:05;;;;;;;20.77;11.45;;;;;;;;;;5073845;28;20023;-27
2023/12/13 05:55:30;;;;;;;23.80;11.27;;;;;;;;;;5074144;28;20266;-28
2023/12/13 05:57:55;;;;;;;23.90;11.27;;;;;;;;;;5073611;28;20283;-27
2023/12/13 06:00:21;;;;;;;19.23;11.53;;;;;;;;;;5073773;28;20471;-30
2023/12/13 06:02:46;;;;;;;23.97;11.97;;;;;;;;;;5073516;28;20306;-27
2023/12/13 06:05:11;;;;;;;23.20;11.37;;;;;;;;;;5074209;28;20258;-27
2023/12/13 06:07:36;;;;;;;22.53;11.20;;;;;;;;;;5073918;28;20666;-27
2023/12/13 06:10:03;;;;;;;24.17;11.57;;;;;;;;;;5073853;28;20342;-27
2023/12/13 06:12:28;;;;;;;22.98;11.13;;;;;;;;;;5073481;28;20016;-28
2023/12/13 06:14:58;;;;;;;24.80;11.33;;;;;;;;;;5073817;28;20078;-27
2023/12/13 06:17:23;;;;;;;20.88;10.50;;;;;;;;;;5073717;28;20745;-27
2023/12/13 06:19:48;;;;;;;19.10;11.03;;;;;;;;;;5074071;28;20096;-27
2023/12/13 06:22:13;;;;;;;21.08;11.20;;;;;;;;;;5073706;28;20278;-28
2023/12/13 06:24:38;;;;;;;26.77;11.27;;;;;;;;;;5073426;28;20017;-28
2023/12/13 06:27:04;;;;;;;21.30;11.23;;;;;;;;;;5073464;28;20243;-27
2023/12/13 06:29:29;;;;;;;24.58;11.32;;;;;;;;;;5073671;28;20259;-28
2023/12/13 06:31:54;;;;;;;23.77;11.17;;;;;;;;;;5073288;28;20029;-28
2023/12/13 06:34:19;;;;;;;26.40;11.60;;;;;;;;;;5073363;28;20269;-28
2023/12/13 06:36:45;;;;;;;26.42;11.35;;;;;;;;;;5073586;28;20247;-28
2023/12/13 06:39:11;;;;;;;22.33;11.85;;;;;;;;;;5073540;28;20020;-28
2023/12/13 06:41:39;;;;;;;22.52;11.65;;;;;;;;;;5073234;28;20391;-27
2023/12/13 06:44:05;;;;;;;26.27;11.25;;;;;;;;;;5073548;28;20021;-27
2023/12/13 06:46:30;;;;;;;24.67;11.32;;;;;;;;;;5073224;28;20353;-28
2023/12/13 06:48:55;;;;;;;26.73;12.90;;;;;;;;;;5073485;28;20111;-27
2023/12/13 06:51:20;;;;;;;26.17;11.73;;;;;;;;;;5073115;28;20734;-28
2023/12/13 06:53:46;;;;;;;23.92;12.23;;;;;;;;;;5073701;28;20024;-28
2023/12/13 06:56:11;;;;;;;23.85;12.00;;;;;;;;;;5073392;28;20059;-28
2023/12/13 06:58:36;;;;;;;26.17;11.60;;;;;;;;;;5073056;28;20486;-27
2023/12/13 07:01:02;;;;;;;22.77;11.30;;;;;;;;;;5073668;28;20020;-27
2023/12/13 07:03:27;;;;;;;24.25;11.82;;;;;;;;;;5072923;28;20287;-27
2023/12/13 07:05:53;;;;;;;20.55;11.75;;;;;;;;;;5073010;28;20503;-27
2023/12/13 07:08:18;;;;;;;23.50;11.00;;;;;;;;;;5074909;28;20016;-27
2023/12/13 07:10:43;;;;;;;27.13;11.32;;;;;;;;;;5077030;28;20021;-27
2023/12/13 07:13:08;;;;;;;27.27;11.47;;;;;;;;;;5076828;28;20020;-27
2023/12/13 07:15:33;;;;;;;24.70;11.20;;;;;;;;;;5076781;28;20606;-27
2023/12/13 07:17:59;;;;;;;26.30;11.57;;;;;;;;;;5077295;28;20262;-27
2023/12/13 07:20:24;;;;;;;22.23;11.27;;;;;;;;;;5076942;28;20742;-27
2023/12/13 07:22:50;;;;;;;25.90;11.32;;;;;;;;;;5076558;28;20017;-27
2023/12/13 07:25:15;;;;;;;28.17;11.55;;;;;;;;;;5076772;28;20020;-27
2023/12/13 07:27:41;;;;;;;23.25;11.63;;;;;;;;;;5076415;28;20096;-27
2023/12/13 07:30:07;;;;;;;23.13;10.93;;;;;;;;;;5076036;28;20029;-27
2023/12/13 07:32:33;;;;;;;26.05;11.05;;;;;;;;;;5076495;28;20414;-27
2023/12/13 07:34:58;;;;;;;28.48;12.20;;;;;;;;;;5075981;28;20066;-27
2023/12/13 07:37:23;;;;;;;26.58;11.70;;;;;;;;;;5076315;28;20009;-27
2023/12/13 07:39:49;;;;;;;26.17;11.10;;;;;;;;;;5075961;28;20017;-27
2023/12/13 07:42:14;;;;;;;22.00;11.27;;;;;;;;;;5076181;28;20021;-27
2023/12/13 07:44:39;;;;;;;24.00;11.77;;;;;;;;;;5076156;28;20486;-27
2023/12/13 07:47:05;;;;;;;30.70;11.52;;;;;;;;;;5076164;28;20271;-27
2023/12/13 07:49:30;;;;;;;25.33;10.75;;;;;;;;;;5076691;28;20032;-27
2023/12/13 07:51:55;;;;;;;21.10;10.60;;;;;;;;;;5076615;28;20024;-28
2023/12/13 07:54:21;;;;;;;27.48;11.13;;;;;;;;;;5076103;28;20354;-27
2023/12/13 07:56:49;;;;;;;29.92;10.90;;;;;;;;;;5076219;28;20017;-27
2023/12/13 07:59:14;;;;;;;27.15;11.55;;;;;;;;;;5076283;28;20020;-27
2023/12/13 08:01:39;;;;;;;24.13;11.33;;;;;;;;;;5076023;28;20043;-27
2023/12/13 08:04:05;;;;;;;25.08;10.95;;;;;;;;;;5076123;28;20262;-27
2023/12/13 08:06:30;;;;;;;22.45;11.27;;;;;;;;;;5076107;28;20528;-27
2023/12/13 08:08:56;;;;;;;22.37;10.67;;;;;;;;;;5075759;28;20056;-27
2023/12/13 08:11:21;;;;;;;25.80;11.05;;;;;;;;;;5075512;28;20275;-27
2023/12/13 08:13:46;;;;;;;20.80;10.80;;;;;;;;;;5075667;28;20055;-27
2023/12/13 08:16:11;;;;;;;21.70;11.13;;;;;;;;;;5075947;28;20020;-28
2023/12/13 08:18:37;;;;;;;22.63;11.13;;;;;;;;;;5075339;28;20338;-27
2023/12/13 08:21:03;;;;;;;29.52;11.38;;;;;;;;;;5075181;28;20251;-28
2023/12/13 08:23:29;;;;;;;22.75;11.35;;;;;;;;;;5075702;28;20028;-27
2023/12/13 08:25:55;;;;;;;27.13;11.70;;;;;;;;;;5075808;28;20027;-27
2023/12/13 08:28:21;;;;;;;23.05;10.90;;;;;;;;;;5076036;28;20345;-27
2023/12/13 08:30:46;;;;;;;25.38;11.65;;;;;;;;;;5075364;28;20035;-27
2023/12/13 08:33:11;;;;;;;22.30;11.33;;;;;;;;;;5075436;28;20013;-27
2023/12/13 08:35:36;;;;;;;27.42;11.20;;;;;;;;;;5075649;28;20263;-27
2023/12/13 08:38:02;;;;;;;27.90;11.90;;;;;;;;;;5073988;28;20043;-27
2023/12/13 08:40:27;;;;;;;29.55;11.25;;;;;;;;;;5075831;28;20048;-27
2023/12/13 08:42:52;;;;;;;24.27;11.35;;;;;;;;;;5075231;28;20371;-27
2023/12/13 08:45:17;;;;;;;23.60;11.02;;;;;;;;;;5075421;28;20013;-28
2023/12/13 08:47:43;;;;;;;26.85;10.93;;;;;;;;;;5075202;28;20019;-28
2023/12/13 08:50:08;;;;;;;24.45;10.80;;;;;;;;;;5075537;28;20367;-27
2023/12/13 08:52:33;;;;;;;22.30;10.50;;;;;;;;;;5075229;28;20036;-32
2023/12/13 08:54:58;;;;;;;26.87;10.93;;;;;;;;;;5074997;28;20116;-28
2023/12/13 08:57:24;;;;;;;20.92;11.40;;;;;;;;;;5075229;28;20369;-28
2023/12/13 08:59:49;;;;;;;23.40;10.67;;;;;;;;;;5075495;28;20012;-27
2023/12/13 09:02:14;;;;;;;24.75;10.75;;;;;;;;;;5074667;28;20347;-28
2023/12/13 09:04:39;;;;;;;22.85;10.38;;;;;;;;;;5075305;28;20024;-28
2023/12/13 09:07:05;;;;;;;24.73;11.43;;;;;;;;;;5073462;28;20111;-28
2023/12/13 09:09:31;;;;;;;20.02;10.43;;;;;;;;;;5074683;28;20096;-27
2023/12/13 09:11:57;;;;;;;21.92;10.65;;;;;;;;;;5074723;28;20087;-27
2023/12/13 09:14:22;;;;;;;24.52;11.10;;;;;;;;;;5074598;28;20045;-27
2023/12/13 09:16:48;;;;;;;22.60;10.60;;;;;;;;;;5075132;28;20025;-27
2023/12/13 09:19:13;;;;;;;20.60;11.15;;;;;;;;;;5074388;28;20464;-27
2023/12/13 09:21:38;;;;;;;25.63;11.02;;;;;;;;;;5074496;28;20020;-28
2023/12/13 09:24:04;;;;;;;23.88;10.95;;;;;;;;;;5073501;28;20031;-27
2023/12/13 09:26:29;;;;;;;24.50;10.68;;;;;;;;;;5074371;28;20537;-29
2023/12/13 09:28:55;;;;;;;26.45;11.50;;;;;;;;;;5074275;28;20475;-28
2023/12/13 09:31:21;;;;;;;25.90;11.48;;;;;;;;;;5072681;28;20388;-31
2023/12/13 09:33:46;;;;;;;25.52;11.70;;;;;;;;;;5074221;28;20017;-29
2023/12/13 09:36:12;;;;;;;23.42;11.65;;;;;;;;;;5074460;28;20052;-30
2023/12/13 09:38:37;;;;;;;24.75;11.93;;;;;;;;;;5074166;28;20416;-31
2023/12/13 09:41:02;;;;;;;27.05;12.85;;;;;;;;;;5072870;28;20035;-29
2023/12/13 09:43:28;;;;;;;24.90;12.60;;;;;;;;;;5074369;28;20472;-28
2023/12/13 09:45:54;;;;;;;23.25;12.32;;;;;;;;;;5073999;28;20023;-28
2023/12/13 09:48:23;;;;;;;21.48;11.60;;;;;;;;;;5074148;28;20092;-28
2023/12/13 09:50:52;;;;;;;29.05;12.10;;;;;;;;;;5074333;28;20025;-28
2023/12/13 09:53:19;;;;;;;23.95;11.93;;;;;;;;;;5074497;28;20096;-28
2023/12/13 09:55:45;;;;;;;28.05;11.73;;;;;;;;;;5074303;28;20031;-28
2023/12/13 09:58:11;;;;;;;24.90;12.23;;;;;;;;;;5073407;28;20463;-29
2023/12/13 10:00:36;;;;;;;23.83;11.98;;;;;;;;;;5074005;28;20016;-29
2023/12/13 10:03:01;;;;;;;25.88;11.43;;;;;;;;;;5073628;28;20040;-29
2023/12/13 10:05:28;;;;;;;26.17;11.37;;;;;;;;;;5073747;28;20483;-28
2023/12/13 10:08:01;;;;;;;21.10;10.63;;;;;;;;;;5072616;28;20282;-28
2023/12/13 10:10:28;;;;;;;22.27;11.38;;;;;;;;;;5071730;28;20016;-29
2023/12/13 10:12:53;;;;;;;21.90;10.45;;;;;;;;;;5071482;28;20008;-30
2023/12/13 10:15:18;;;;;;;23.70;10.85;;;;;;;;;;5071738;28;20020;-28
2023/12/13 10:17:43;;;;;;;21.38;10.60;;;;;;;;;;5071514;28;20013;-29
2023/12/13 10:20:10;;;;;;;23.65;10.85;;;;;;;;;;5071392;28;20027;-29
2023/12/13 10:22:36;;;;;;;19.10;10.65;;;;;;;;;;5072127;28;20345;-28
2023/12/13 10:25:02;;;;;;;20.92;10.60;;;;;;;;;;5073721;28;20019;-29
2023/12/13 10:27:27;;;;;;;21.58;10.40;;;;;;;;;;5073476;28;20179;-29
2023/12/13 10:29:52;;;;;;;24.75;10.23;;;;;;;;;;5073495;28;20103;-28
2023/12/13 10:32:21;;;;;;;20.02;9.63;;;;;;;;;;5073599;28;20455;-29
2023/12/13 10:34:47;;;;;;;22.33;10.48;;;;;;;;;;5073667;28;20467;-30
2023/12/13 10:37:12;;;;;;;23.30;10.40;;;;;;;;;;5073626;28;20013;-28
2023/12/13 10:39:41;;;;;;;21.77;10.88;;;;;;;;;;5073650;28;20371;-28
2023/12/13 10:42:06;;;;;;;18.42;10.23;;;;;;;;;;5073246;28;20017;-29
2023/12/13 10:44:33;;;;;;;20.85;9.45;;;;;;;;;;5077403;28;20077;-28
2023/12/13 10:46:59;;;;;;;16.38;9.27;;;;;;;;;;5077384;28;20021;-29
2023/12/13 10:49:24;;;;;;;17.02;9.55;;;;;;;;;;5077330;28;20470;-30
2023/12/13 10:51:50;;;;;;;18.67;9.45;;;;;;;;;;5077236;28;20569;-28
2023/12/13 10:54:16;;;;;;;17.98;9.15;;;;;;;;;;5077581;28;20463;-27
2023/12/13 10:56:42;;;;;;;17.13;9.25;;;;;;;;;;5077727;28;20091;-28
2023/12/13 10:59:09;;;;;;;21.40;8.85;;;;;;;;;;5077723;28;20016;-28
2023/12/13 11:01:34;;;;;;;19.33;9.52;;;;;;;;;;5075686;28;20024;-28
2023/12/13 11:04:06;;;;;;;18.30;9.73;;;;;;;;;;5075870;28;20024;-36
2023/12/13 11:06:32;;;;;;;19.13;9.90;;;;;;;;;;5077009;28;20024;-28
2023/12/13 11:09:07;;;;;;;14.77;9.20;;;;;;;;;;5077263;28;20035;-28
2023/12/13 11:11:34;;;;;;;17.05;9.50;;;;;;;;;;5077111;28;20430;-28
2023/12/13 11:14:01;;;;;;;18.55;8.95;;;;;;;;;;5077438;28;20023;-28
2023/12/13 11:16:27;;;;;;;17.60;9.52;;;;;;;;;;5075933;28;20540;-28
2023/12/13 11:19:02;;;;;;;18.95;9.85;;;;;;;;;;5077412;28;20091;-27
2023/12/13 11:21:32;;;;;;;19.95;9.57;;;;;;;;;;5075796;28;20074;-28
2023/12/13 11:24:07;;;;;;;17.35;9.35;;;;;;;;;;5076670;28;20026;-28
2023/12/13 11:26:33;;;;;;;19.08;9.85;;;;;;;;;;5075708;28;20024;-28
2023/12/13 11:28:59;;;;;;;19.00;9.73;;;;;;;;;;5076584;28;20020;-27
2023/12/13 11:31:25;;;;;;;19.08;9.48;;;;;;;;;;5076797;28;20031;-28
2023/12/13 11:33:54;;;;;;;17.40;9.27;;;;;;;;;;5076809;28;20360;-28
2023/12/13 11:36:20;;;;;;;17.95;9.70;;;;;;;;;;5076502;28;20052;-28
2023/12/13 11:38:46;;;;;;;19.63;10.25;;;;;;;;;;5076966;28;20459;-28
2023/12/13 11:41:11;;;;;;;18.45;10.20;;;;;;;;;;5076419;28;20035;-28
2023/12/13 11:43:36;;;;;;;20.07;9.97;;;;;;;;;;5076430;28;20107;-28
2023/12/13 11:46:02;;;;;;;20.73;10.38;;;;;;;;;;5076849;28;20606;-28
2023/12/13 11:48:27;;;;;;;19.20;10.90;;;;;;;;;;5076248;28;20016;-28
2023/12/13 11:50:52;;;;;;;18.27;10.63;;;;;;;;;;5076744;28;20082;-27
2023/12/13 11:53:17;;;;;;;21.52;11.27;;;;;;;;;;5076343;28;20255;-28
2023/12/13 11:55:43;;;;;;;17.63;10.73;;;;;;;;;;5076180;28;20016;-28
2023/12/13 11:58:08;;;;;;;26.35;10.52;;;;;;;;;;5076034;28;20294;-27
2023/12/13 12:00:33;;;;;;;24.27;10.77;;;;;;;;;;5076115;28;20024;-27
2023/12/13 12:02:58;;;;;;;18.98;10.18;;;;;;;;;;5076631;28;20041;-27
2023/12/13 12:05:25;;;;;;;21.88;10.52;;;;;;;;;;5076661;28;20098;-28
2023/12/13 12:08:01;;;;;;;22.50;10.98;;;;;;;;;;5074653;28;20036;-27
2023/12/13 12:10:26;;;;;;;21.30;10.45;;;;;;;;;;5076103;28;20106;-28
2023/12/13 12:12:52;;;;;;;18.70;10.95;;;;;;;;;;5076358;28;20502;-27
2023/12/13 12:15:19;;;;;;;19.92;10.52;;;;;;;;;;5075795;28;20370;-28
2023/12/13 12:17:44;;;;;;;19.83;10.68;;;;;;;;;;5075722;28;20020;-27
2023/12/13 12:20:09;;;;;;;20.50;10.43;;;;;;;;;;5075972;28;20021;-27
2023/12/13 12:22:35;;;;;;;25.35;10.75;;;;;;;;;;5076190;28;20372;-28
2023/12/13 12:25:00;;;;;;;21.27;10.55;;;;;;;;;;5074330;28;20021;-28
2023/12/13 12:27:26;;;;;;;22.17;10.88;;;;;;;;;;5075812;28;20071;-27
2023/12/13 12:29:52;;;;;;;16.70;9.93;;;;;;;;;;5075850;28;20092;-28
2023/12/13 12:32:17;;;;;;;21.52;9.77;;;;;;;;;;5075406;28;20100;-28
2023/12/13 12:34:46;;;;;;;21.42;10.38;;;;;;;;;;5074251;28;20398;-29
2023/12/13 12:37:12;;;;;;;21.90;11.02;;;;;;;;;;5075355;28;20013;-28
2023/12/13 12:39:37;;;;;;;19.23;10.15;;;;;;;;;;5075664;28;20108;-29
2023/12/13 12:42:03;;;;;;;24.42;11.35;;;;;;;;;;5075547;28;20017;-28
2023/12/13 12:44:28;;;;;;;23.67;10.90;;;;;;;;;;5075283;28;20021;-29
2023/12/13 12:46:53;;;;;;;21.00;11.32;;;;;;;;;;5075534;28;20027;-28
2023/12/13 12:49:19;;;;;;;23.92;11.80;;;;;;;;;;5075209;28;20029;-28
2023/12/13 12:51:44;;;;;;;23.85;11.52;;;;;;;;;;5075083;28;20066;-29
2023/12/13 12:54:09;;;;;;;18.67;10.68;;;;;;;;;;5075020;28;20020;-28
2023/12/13 12:56:36;;;;;;;22.63;10.77;;;;;;;;;;5075303;28;20023;-28
2023/12/13 12:59:02;;;;;;;21.38;11.00;;;;;;;;;;5075209;28;20444;-28
2023/12/13 13:01:27;;;;;;;22.60;11.85;;;;;;;;;;5074779;28;20069;-29
2023/12/13 13:03:54;;;;;;;22.33;10.93;;;;;;;;;;5074824;28;20067;-28
2023/12/13 13:06:19;;;;;;;21.00;11.82;;;;;;;;;;5072997;28;20544;-29
2023/12/13 13:08:44;;;;;;;20.70;10.97;;;;;;;;;;5074713;28;20029;-28
2023/12/13 13:11:10;;;;;;;20.38;10.85;;;;;;;;;;5074825;28;20289;-28
2023/12/13 13:13:35;;;;;;;19.60;10.48;;;;;;;;;;5074910;28;20100;-28
2023/12/13 13:16:00;;;;;;;16.65;9.30;;;;;;;;;;5074876;28;20028;-28
2023/12/13 13:18:26;;;;;;;15.30;9.02;;;;;;;;;;5074594;28;20023;-32
2023/12/13 13:20:51;;;;;;;15.18;7.93;;;;;;;;;;5074471;28;20025;-28
2023/12/13 13:23:16;;;;;;;12.95;7.57;;;;;;;;;;5074991;28;20028;-28
2023/12/13 13:25:41;;;;;;;11.10;6.57;;;;;;;;;;5074460;28;20020;-28
2023/12/13 13:28:07;;;;;;;10.65;5.88;;;;;;;;;;5074328;28;20056;-28
2023/12/13 13:30:32;;;;;;;11.07;5.53;;;;;;;;;;5074895;28;20017;-28
2023/12/13 13:32:57;;;;;;;10.93;5.82;;;;;;;;;;5074338;28;20092;-28
2023/12/13 13:35:24;;;;;;;8.10;5.50;;;;;;;;;;5074297;28;20356;-29
2023/12/13 13:37:49;;;;;;;8.27;4.93;;;;;;;;;;5074145;28;20087;-28
2023/12/13 13:40:15;;;;;;;13.32;5.43;;;;;;;;;;5074659;28;20412;-28
2023/12/13 13:42:40;;;;;;;9.10;5.90;;;;;;;;;;5073565;28;20016;-29
2023/12/13 13:45:06;;;;;;;21.20;10.98;;;;;;;;;;5074615;28;20043;-28
2023/12/13 13:47:32;;;;;;;9.77;6.03;;;;;;;;;;5074353;28;20092;-28
2023/12/13 13:49:57;;;;;;;9.95;5.45;;;;;;;;;;5072197;28;20154;-28
2023/12/13 13:52:22;;;;;;;9.23;5.80;;;;;;;;;;5073907;28;20054;-28
2023/12/13 13:54:47;;;;;;;8.90;5.50;;;;;;;;;;5073937;28;20059;-28
2023/12/13 13:57:13;;;;;;;9.32;5.63;;;;;;;;;;5072369;28;20017;-28
2023/12/13 13:59:38;;;;;;;10.00;5.78;;;;;;;;;;5074374;28;20043;-28
2023/12/13 14:02:03;;;;;;;8.77;5.33;;;;;;;;;;5073670;28;20043;-28
2023/12/13 14:04:28;;;;;;;9.90;5.80;;;;;;;;;;5073974;28;20258;-28
2023/12/13 14:06:53;;;;;;;11.30;5.90;;;;;;;;;;5073688;28;20111;-28
2023/12/13 14:09:19;;;;;;;9.50;5.90;;;;;;;;;;5073888;28;20274;-27
2023/12/13 14:11:44;;;;;;;9.27;6.00;;;;;;;;;;5073757;28;20021;-28
2023/12/13 14:14:11;;;;;;;11.43;6.13;;;;;;;;;;5073697;28;20371;-27